createdAt,value
2023-08-15T05:43:34.585Z,20.80
2023-08-15T05:50:05.217Z,21.30
2023-08-15T05:52:34.298Z,21.40
2023-08-15T05:55:03.581Z,21.50
2023-08-15T05:57:32.684Z,21.70
2023-08-15T06:00:01.804Z,21.80
2023-08-15T06:47:58.553Z,21.80
2023-08-15T06:50:27.691Z,21.90
2023-08-15T06:52:57.680Z,22.20
2023-08-15T06:55:27.133Z,22.50
2023-08-15T06:57:56.725Z,22.80
2023-08-15T07:00:25.855Z,23.00
2023-08-15T07:02:55.190Z,23.20
2023-08-15T07:05:25.925Z,23.40
2023-08-15T07:07:55.896Z,23.50
2023-08-15T07:10:25.537Z,23.60
2023-08-15T07:13:02.461Z,23.60
2023-08-15T07:15:32.263Z,23.60
2023-08-15T07:18:01.822Z,23.60
2023-08-15T07:20:34.312Z,23.60
2023-08-15T07:23:03.978Z,23.60
2023-08-15T07:25:33.090Z,23.60
2023-08-15T07:28:02.130Z,23.60
2023-08-15T07:30:31.199Z,23.60
2023-08-15T07:33:00.615Z,23.50
2023-08-15T07:35:29.696Z,23.40
2023-08-15T07:38:01.874Z,23.40
2023-08-15T07:40:31.616Z,23.40
2023-08-15T07:43:00.928Z,23.50
2023-08-15T07:45:30.694Z,23.50
2023-08-15T07:48:00.036Z,23.60
2023-08-15T07:50:31.213Z,23.80
2023-08-15T07:53:02.648Z,23.90
2023-08-15T07:55:34.017Z,23.90
2023-08-15T07:58:03.438Z,23.90
2023-08-15T08:00:32.652Z,23.90
2023-08-15T08:03:01.944Z,23.90
2023-08-15T08:05:34.133Z,23.90
2023-08-15T08:08:05.297Z,23.90
2023-08-15T08:10:34.453Z,23.90
2023-08-15T08:13:03.700Z,23.90
2023-08-15T08:15:33.142Z,23.90
2023-08-15T08:18:02.358Z,23.90
2023-08-15T08:20:31.940Z,24.00
2023-08-15T08:23:01.232Z,24.10
2023-08-15T08:25:31.813Z,24.10
2023-08-15T08:28:01.153Z,24.30
2023-08-15T08:30:32.050Z,24.60
2023-08-15T08:33:02.219Z,24.90
2023-08-15T08:35:31.379Z,25.10
2023-08-15T08:38:00.527Z,25.30
2023-08-15T08:40:31.895Z,25.50
2023-08-15T08:43:02.303Z,25.60
2023-08-15T08:45:33.636Z,25.50
2023-08-15T08:48:04.435Z,25.60
2023-08-15T08:50:34.975Z,25.70
2023-08-15T08:53:04.117Z,25.70
2023-08-15T08:55:37.307Z,25.60
2023-08-15T08:58:07.769Z,26.00
2023-08-15T17:10:46.824Z,24.50
2023-08-15T17:13:15.755Z,24.30
2023-08-15T17:15:48.397Z,24.10
2023-08-15T17:18:17.534Z,24.10
2023-08-15T17:20:46.972Z,24.10
2023-08-15T17:23:16.101Z,24.00
2023-08-15T17:25:44.941Z,24.00
2023-08-15T17:28:14.663Z,23.90
2023-08-15T17:30:43.721Z,23.70
2023-08-15T17:33:14.557Z,23.70
2023-08-15T17:35:45.046Z,23.60
2023-08-15T17:38:14.196Z,23.60
2023-08-15T17:40:43.450Z,23.50
2023-08-15T17:43:12.802Z,23.50
2023-08-15T17:45:41.996Z,23.40
2023-08-15T17:48:11.184Z,23.20
2023-08-15T17:50:41.956Z,23.20
2023-08-15T17:53:11.044Z,23.40
2023-08-15T17:55:40.238Z,23.30
2023-08-15T17:58:09.517Z,23.20
2023-08-15T18:00:38.459Z,23.10
2023-08-15T18:03:08.037Z,23.00
2023-08-15T18:05:37.198Z,22.90
2023-08-15T18:08:08.496Z,22.90
2023-08-15T18:10:37.415Z,22.80
2023-08-15T18:13:06.929Z,22.60
2023-08-15T18:15:36.132Z,22.50
2023-08-15T18:18:05.386Z,22.40
2023-08-15T18:20:34.428Z,22.30
2023-08-15T18:23:09.110Z,22.20
2023-08-15T18:25:39.550Z,22.10
2023-08-15T18:28:09.249Z,22.00
2023-08-15T18:30:38.252Z,21.90
2023-08-15T18:33:07.618Z,21.90
